sensor_id;sensor_type;location;lat;lon;timestamp;temperature;humidity
60848;DHT22;46681;47.696;9.140;2023-05-07T00:00:51;17.10;62.30
60848;DHT22;46681;47.696;9.140;2023-05-07T00:03:19;17.10;62.40
60848;DHT22;46681;47.696;9.140;2023-05-07T00:05:58;17.10;62.60
60848;DHT22;46681;47.696;9.140;2023-05-07T00:08:32;17.10;62.60
60848;DHT22;46681;47.696;9.140;2023-05-07T00:10:58;17.10;62.70
60848;DHT22;46681;47.696;9.140;2023-05-07T00:13:47;17.00;62.50
60848;DHT22;46681;47.696;9.140;2023-05-07T00:16:15;17.00;62.90
60848;DHT22;46681;47.696;9.140;2023-05-07T00:18:41;17.00;62.70
60848;DHT22;46681;47.696;9.140;2023-05-07T00:21:08;17.00;62.90
60848;DHT22;46681;47.696;9.140;2023-05-07T00:23:41;17.00;62.80
60848;DHT22;46681;47.696;9.140;2023-05-07T00:26:09;16.90;62.70
60848;DHT22;46681;47.696;9.140;2023-05-07T00:28:35;16.90;62.80
60848;DHT22;46681;47.696;9.140;2023-05-07T00:31:04;16.90;62.80
60848;DHT22;46681;47.696;9.140;2023-05-07T00:33:35;16.90;63.00
60848;DHT22;46681;47.696;9.140;2023-05-07T00:36:09;16.90;63.20
60848;DHT22;46681;47.696;9.140;2023-05-07T00:38:39;16.90;62.90
60848;DHT22;46681;47.696;9.140;2023-05-07T00:41:08;16.80;63.10
60848;DHT22;46681;47.696;9.140;2023-05-07T00:43:36;16.80;63.20
60848;DHT22;46681;47.696;9.140;2023-05-07T00:46:06;16.80;63.20
60848;DHT22;46681;47.696;9.140;2023-05-07T00:48:32;16.80;63.10
60848;DHT22;46681;47.696;9.140;2023-05-07T00:51:00;16.80;63.20
60848;DHT22;46681;47.696;9.140;2023-05-07T00:53:27;16.80;63.20
60848;DHT22;46681;47.696;9.140;2023-05-07T00:56:09;16.70;63.10
60848;DHT22;46681;47.696;9.140;2023-05-07T00:58:43;16.70;63.30
60848;DHT22;46681;47.696;9.140;2023-05-07T01:01:09;16.70;63.40
60848;DHT22;46681;47.696;9.140;2023-05-07T01:03:34;16.70;63.20
60848;DHT22;46681;47.696;9.140;2023-05-07T01:06:03;16.70;63.30
60848;DHT22;46681;47.696;9.140;2023-05-07T01:08:39;16.70;63.40
60848;DHT22;46681;47.696;9.140;2023-05-07T01:11:15;16.60;63.30
60848;DHT22;46681;47.696;9.140;2023-05-07T01:13:51;16.60;63.40
60848;DHT22;46681;47.696;9.140;2023-05-07T01:16:16;16.60;63.50
60848;DHT22;46681;47.696;9.140;2023-05-07T01:18:42;16.60;63.40
60848;DHT22;46681;47.696;9.140;2023-05-07T01:21:17;16.60;63.60
60848;DHT22;46681;47.696;9.140;2023-05-07T01:23:44;16.60;63.60
60848;DHT22;46681;47.696;9.140;2023-05-07T01:26:09;16.60;63.70
60848;DHT22;46681;47.696;9.140;2023-05-07T01:28:38;16.60;63.50
60848;DHT22;46681;47.696;9.140;2023-05-07T01:31:07;16.60;63.60
60848;DHT22;46681;47.696;9.140;2023-05-07T01:33:35;16.50;63.50
60848;DHT22;46681;47.696;9.140;2023-05-07T01:36:03;16.50;63.50
60848;DHT22;46681;47.696;9.140;2023-05-07T01:38:31;16.50;63.60
60848;DHT22;46681;47.696;9.140;2023-05-07T01:41:03;16.50;63.80
60848;DHT22;46681;47.696;9.140;2023-05-07T01:43:30;16.50;63.80
60848;DHT22;46681;47.696;9.140;2023-05-07T01:46:00;16.50;63.60
60848;DHT22;46681;47.696;9.140;2023-05-07T01:48:29;16.40;63.80
60848;DHT22;46681;47.696;9.140;2023-05-07T01:50:57;16.40;63.80
60848;DHT22;46681;47.696;9.140;2023-05-07T01:53:23;16.40;63.80
60848;DHT22;46681;47.696;9.140;2023-05-07T01:55:51;16.40;63.90
60848;DHT22;46681;47.696;9.140;2023-05-07T01:58:16;16.40;63.80
60848;DHT22;46681;47.696;9.140;2023-05-07T02:00:47;16.30;63.90
60848;DHT22;46681;47.696;9.140;2023-05-07T02:03:13;16.30;63.80
60848;DHT22;46681;47.696;9.140;2023-05-07T02:05:51;16.30;63.90
60848;DHT22;46681;47.696;9.140;2023-05-07T02:08:17;16.30;64.00
60848;DHT22;46681;47.696;9.140;2023-05-07T02:10:54;16.30;64.00
60848;DHT22;46681;47.696;9.140;2023-05-07T02:13:19;16.20;63.90
60848;DHT22;46681;47.696;9.140;2023-05-07T02:15:49;16.20;64.00
60848;DHT22;46681;47.696;9.140;2023-05-07T02:18:17;16.20;64.20
60848;DHT22;46681;47.696;9.140;2023-05-07T02:20:46;16.20;64.10
60848;DHT22;46681;47.696;9.140;2023-05-07T02:23:12;16.20;64.00
60848;DHT22;46681;47.696;9.140;2023-05-07T02:25:38;16.20;64.10
60848;DHT22;46681;47.696;9.140;2023-05-07T02:28:04;16.20;64.30
60848;DHT22;46681;47.696;9.140;2023-05-07T02:30:29;16.10;64.20
60848;DHT22;46681;47.696;9.140;2023-05-07T02:32:55;16.10;64.20
60848;DHT22;46681;47.696;9.140;2023-05-07T02:35:20;16.10;64.10
60848;DHT22;46681;47.696;9.140;2023-05-07T02:37:46;16.10;64.20
60848;DHT22;46681;47.696;9.140;2023-05-07T02:40:24;16.10;64.30
60848;DHT22;46681;47.696;9.140;2023-05-07T02:42:49;16.10;64.30
60848;DHT22;46681;47.696;9.140;2023-05-07T02:45:25;16.00;64.30
60848;DHT22;46681;47.696;9.140;2023-05-07T02:47:58;16.00;64.40
60848;DHT22;46681;47.696;9.140;2023-05-07T02:50:48;16.00;64.40
60848;DHT22;46681;47.696;9.140;2023-05-07T02:53:14;16.00;64.30
60848;DHT22;46681;47.696;9.140;2023-05-07T02:55:45;16.00;64.40
60848;DHT22;46681;47.696;9.140;2023-05-07T02:58:11;16.00;64.50
60848;DHT22;46681;47.696;9.140;2023-05-07T03:00:45;16.00;64.50
60848;DHT22;46681;47.696;9.140;2023-05-07T03:03:11;15.90;64.30
60848;DHT22;46681;47.696;9.140;2023-05-07T03:05:39;15.90;64.40
60848;DHT22;46681;47.696;9.140;2023-05-07T03:08:20;15.90;64.60
60848;DHT22;46681;47.696;9.140;2023-05-07T03:11:04;15.90;64.60
60848;DHT22;46681;47.696;9.140;2023-05-07T03:13:31;15.80;64.60
60848;DHT22;46681;47.696;9.140;2023-05-07T03:16:12;15.80;64.50
60848;DHT22;46681;47.696;9.140;2023-05-07T03:18:43;15.80;64.60
60848;DHT22;46681;47.696;9.140;2023-05-07T03:21:24;15.80;64.50
60848;DHT22;46681;47.696;9.140;2023-05-07T03:24:10;15.80;64.60
60848;DHT22;46681;47.696;9.140;2023-05-07T03:26:43;15.80;64.60
60848;DHT22;46681;47.696;9.140;2023-05-07T03:29:15;15.70;64.70
60848;DHT22;46681;47.696;9.140;2023-05-07T03:31:49;15.70;64.90
60848;DHT22;46681;47.696;9.140;2023-05-07T03:34:17;15.70;64.60
60848;DHT22;46681;47.696;9.140;2023-05-07T03:36:45;15.70;64.70
60848;DHT22;46681;47.696;9.140;2023-05-07T03:39:14;15.70;64.60
60848;DHT22;46681;47.696;9.140;2023-05-07T03:41:52;15.60;64.70
60848;DHT22;46681;47.696;9.140;2023-05-07T03:47:14;15.60;64.90
60848;DHT22;46681;47.696;9.140;2023-05-07T03:49:46;15.60;64.70
60848;DHT22;46681;47.696;9.140;2023-05-07T03:52:12;15.60;64.90
60848;DHT22;46681;47.696;9.140;2023-05-07T03:54:58;15.60;64.80
60848;DHT22;46681;47.696;9.140;2023-05-07T03:57:34;15.50;64.60
60848;DHT22;46681;47.696;9.140;2023-05-07T04:02:55;15.50;65.20
60848;DHT22;46681;47.696;9.140;2023-05-07T04:05:25;15.50;64.90
60848;DHT22;46681;47.696;9.140;2023-05-07T04:07:51;15.50;65.10
60848;DHT22;46681;47.696;9.140;2023-05-07T04:10:19;15.40;65.00
60848;DHT22;46681;47.696;9.140;2023-05-07T04:12:51;15.40;65.00
60848;DHT22;46681;47.696;9.140;2023-05-07T04:15:17;15.40;64.90
60848;DHT22;46681;47.696;9.140;2023-05-07T04:17:45;15.40;64.90
60848;DHT22;46681;47.696;9.140;2023-05-07T04:20:17;15.40;65.50
60848;DHT22;46681;47.696;9.140;2023-05-07T04:22:48;15.30;64.90
60848;DHT22;46681;47.696;9.140;2023-05-07T04:25:13;15.30;65.10
60848;DHT22;46681;47.696;9.140;2023-05-07T04:27:53;15.30;65.00
60848;DHT22;46681;47.696;9.140;2023-05-07T04:30:19;15.30;65.30
60848;DHT22;46681;47.696;9.140;2023-05-07T04:32:53;15.30;65.00
60848;DHT22;46681;47.696;9.140;2023-05-07T04:35:39;15.30;65.30
60848;DHT22;46681;47.696;9.140;2023-05-07T04:38:07;15.30;64.90
60848;DHT22;46681;47.696;9.140;2023-05-07T04:40:32;15.30;64.90
60848;DHT22;46681;47.696;9.140;2023-05-07T04:42:58;15.30;65.00
60848;DHT22;46681;47.696;9.140;2023-05-07T04:45:26;15.30;65.00
60848;DHT22;46681;47.696;9.140;2023-05-07T04:47:57;15.20;64.90
60848;DHT22;46681;47.696;9.140;2023-05-07T04:50:23;15.30;64.80
60848;DHT22;46681;47.696;9.140;2023-05-07T04:52:57;15.20;65.10
60848;DHT22;46681;47.696;9.140;2023-05-07T04:55:23;15.30;64.90
60848;DHT22;46681;47.696;9.140;2023-05-07T04:57:48;15.30;64.80
60848;DHT22;46681;47.696;9.140;2023-05-07T05:00:17;15.30;64.90
60848;DHT22;46681;47.696;9.140;2023-05-07T05:02:48;15.30;65.00
60848;DHT22;46681;47.696;9.140;2023-05-07T05:05:13;15.30;65.00
60848;DHT22;46681;47.696;9.140;2023-05-07T05:07:47;15.30;65.20
60848;DHT22;46681;47.696;9.140;2023-05-07T05:10:16;15.30;64.90
60848;DHT22;46681;47.696;9.140;2023-05-07T05:12:44;15.30;65.00
60848;DHT22;46681;47.696;9.140;2023-05-07T05:15:12;15.40;65.10
60848;DHT22;46681;47.696;9.140;2023-05-07T05:18:04;15.40;65.00
60848;DHT22;46681;47.696;9.140;2023-05-07T05:20:33;15.40;65.00
60848;DHT22;46681;47.696;9.140;2023-05-07T05:22:59;15.40;65.20
60848;DHT22;46681;47.696;9.140;2023-05-07T05:25:24;15.40;64.90
60848;DHT22;46681;47.696;9.140;2023-05-07T05:27:50;15.50;66.00
60848;DHT22;46681;47.696;9.140;2023-05-07T05:30:29;15.50;67.00
60848;DHT22;46681;47.696;9.140;2023-05-07T05:33:04;15.50;67.30
60848;DHT22;46681;47.696;9.140;2023-05-07T05:35:34;15.60;67.50
60848;DHT22;46681;47.696;9.140;2023-05-07T05:38:00;15.70;66.90
60848;DHT22;46681;47.696;9.140;2023-05-07T05:40:28;15.60;66.10
60848;DHT22;46681;47.696;9.140;2023-05-07T05:43:14;15.70;66.00
60848;DHT22;46681;47.696;9.140;2023-05-07T05:45:45;15.70;66.00
60848;DHT22;46681;47.696;9.140;2023-05-07T05:48:13;15.70;65.80
60848;DHT22;46681;47.696;9.140;2023-05-07T05:50:44;15.70;66.00
60848;DHT22;46681;47.696;9.140;2023-05-07T05:53:12;15.70;65.70
60848;DHT22;46681;47.696;9.140;2023-05-07T05:56:05;15.70;65.50
60848;DHT22;46681;47.696;9.140;2023-05-07T05:58:30;15.70;65.20
60848;DHT22;46681;47.696;9.140;2023-05-07T06:00:59;15.70;65.30
60848;DHT22;46681;47.696;9.140;2023-05-07T06:03:24;15.80;65.40
60848;DHT22;46681;47.696;9.140;2023-05-07T06:05:50;15.80;65.20
60848;DHT22;46681;47.696;9.140;2023-05-07T06:08:21;15.80;65.20
60848;DHT22;46681;47.696;9.140;2023-05-07T06:10:56;15.90;65.20
60848;DHT22;46681;47.696;9.140;2023-05-07T06:13:27;15.90;65.00
60848;DHT22;46681;47.696;9.140;2023-05-07T06:15:57;16.00;65.20
60848;DHT22;46681;47.696;9.140;2023-05-07T06:18:30;16.00;65.70
60848;DHT22;46681;47.696;9.140;2023-05-07T06:21:15;16.10;65.40
60848;DHT22;46681;47.696;9.140;2023-05-07T06:23:47;16.10;65.30
60848;DHT22;46681;47.696;9.140;2023-05-07T06:26:17;16.20;65.20
60848;DHT22;46681;47.696;9.140;2023-05-07T06:29:06;16.20;66.80
60848;DHT22;46681;47.696;9.140;2023-05-07T06:31:34;16.30;66.80
60848;DHT22;46681;47.696;9.140;2023-05-07T06:34:05;16.30;66.20
60848;DHT22;46681;47.696;9.140;2023-05-07T06:36:33;16.40;66.80
60848;DHT22;46681;47.696;9.140;2023-05-07T06:38:59;16.40;67.00
60848;DHT22;46681;47.696;9.140;2023-05-07T06:41:24;16.50;67.00
60848;DHT22;46681;47.696;9.140;2023-05-07T06:43:52;16.50;68.20
60848;DHT22;46681;47.696;9.140;2023-05-07T06:46:20;16.60;68.00
60848;DHT22;46681;47.696;9.140;2023-05-07T06:48:51;16.70;67.50
60848;DHT22;46681;47.696;9.140;2023-05-07T06:51:19;16.80;67.90
60848;DHT22;46681;47.696;9.140;2023-05-07T06:53:45;16.80;67.40
60848;DHT22;46681;47.696;9.140;2023-05-07T06:56:15;16.90;67.40
60848;DHT22;46681;47.696;9.140;2023-05-07T06:58:51;17.00;66.60
60848;DHT22;46681;47.696;9.140;2023-05-07T07:01:32;17.10;65.90
60848;DHT22;46681;47.696;9.140;2023-05-07T07:04:00;17.20;65.90
60848;DHT22;46681;47.696;9.140;2023-05-07T07:06:33;17.30;65.10
60848;DHT22;46681;47.696;9.140;2023-05-07T07:09:02;17.30;65.30
60848;DHT22;46681;47.696;9.140;2023-05-07T07:11:28;17.40;65.10
60848;DHT22;46681;47.696;9.140;2023-05-07T07:14:05;17.40;65.00
60848;DHT22;46681;47.696;9.140;2023-05-07T07:16:35;17.50;64.90
60848;DHT22;46681;47.696;9.140;2023-05-07T07:21:54;17.70;64.10
60848;DHT22;46681;47.696;9.140;2023-05-07T07:27:09;18.00;63.10
60848;DHT22;46681;47.696;9.140;2023-05-07T07:29:42;18.10;62.80
60848;DHT22;46681;47.696;9.140;2023-05-07T07:32:59;18.30;62.80
60848;DHT22;46681;47.696;9.140;2023-05-07T07:35:29;18.50;62.30
60848;DHT22;46681;47.696;9.140;2023-05-07T07:38:01;18.60;61.90
60848;DHT22;46681;47.696;9.140;2023-05-07T07:40:37;18.70;61.50
60848;DHT22;46681;47.696;9.140;2023-05-07T07:43:23;18.80;61.20
60848;DHT22;46681;47.696;9.140;2023-05-07T07:45:49;18.90;60.80
60848;DHT22;46681;47.696;9.140;2023-05-07T07:48:14;19.10;60.50
60848;DHT22;46681;47.696;9.140;2023-05-07T07:51:08;19.20;60.20
60848;DHT22;46681;47.696;9.140;2023-05-07T07:53:41;19.40;59.90
60848;DHT22;46681;47.696;9.140;2023-05-07T07:56:17;19.60;59.60
60848;DHT22;46681;47.696;9.140;2023-05-07T07:58:47;19.70;59.40
60848;DHT22;46681;47.696;9.140;2023-05-07T08:01:25;19.80;58.90
60848;DHT22;46681;47.696;9.140;2023-05-07T08:03:51;19.90;58.50
60848;DHT22;46681;47.696;9.140;2023-05-07T08:06:21;20.00;58.40
60848;DHT22;46681;47.696;9.140;2023-05-07T08:08:58;20.10;58.40
60848;DHT22;46681;47.696;9.140;2023-05-07T08:11:27;20.30;57.90
60848;DHT22;46681;47.696;9.140;2023-05-07T08:14:02;20.40;57.20
60848;DHT22;46681;47.696;9.140;2023-05-07T08:16:46;20.30;56.60
60848;DHT22;46681;47.696;9.140;2023-05-07T08:19:14;20.20;57.30
60848;DHT22;46681;47.696;9.140;2023-05-07T08:21:51;20.30;56.80
60848;DHT22;46681;47.696;9.140;2023-05-07T08:24:27;20.30;56.10
60848;DHT22;46681;47.696;9.140;2023-05-07T08:27:07;20.30;56.90
60848;DHT22;46681;47.696;9.140;2023-05-07T08:29:38;20.40;57.50
60848;DHT22;46681;47.696;9.140;2023-05-07T08:32:06;20.60;57.20
60848;DHT22;46681;47.696;9.140;2023-05-07T08:34:45;20.70;57.00
60848;DHT22;46681;47.696;9.140;2023-05-07T08:37:20;20.80;56.90
60848;DHT22;46681;47.696;9.140;2023-05-07T08:39:54;21.00;56.80
60848;DHT22;46681;47.696;9.140;2023-05-07T08:42:37;21.20;56.50
60848;DHT22;46681;47.696;9.140;2023-05-07T08:48:15;21.40;55.60
60848;DHT22;46681;47.696;9.140;2023-05-07T08:54:16;21.40;54.30
60848;DHT22;46681;47.696;9.140;2023-05-07T08:56:44;21.40;54.60
60848;DHT22;46681;47.696;9.140;2023-05-07T08:59:41;21.50;54.80
60848;DHT22;46681;47.696;9.140;2023-05-07T09:02:12;21.50;55.50
60848;DHT22;46681;47.696;9.140;2023-05-07T09:04:44;21.80;54.70
60848;DHT22;46681;47.696;9.140;2023-05-07T09:07:30;21.80;54.80
60848;DHT22;46681;47.696;9.140;2023-05-07T09:10:29;21.80;54.20
60848;DHT22;46681;47.696;9.140;2023-05-07T09:12:58;21.90;53.70
60848;DHT22;46681;47.696;9.140;2023-05-07T09:15:43;22.00;51.90
60848;DHT22;46681;47.696;9.140;2023-05-07T09:18:24;22.20;52.70
60848;DHT22;46681;47.696;9.140;2023-05-07T09:21:05;22.30;52.50
60848;DHT22;46681;47.696;9.140;2023-05-07T09:24:02;22.50;53.60
60848;DHT22;46681;47.696;9.140;2023-05-07T09:26:46;22.80;53.30
60848;DHT22;46681;47.696;9.140;2023-05-07T09:29:45;22.90;53.00
60848;DHT22;46681;47.696;9.140;2023-05-07T09:35:33;23.20;52.50
60848;DHT22;46681;47.696;9.140;2023-05-07T09:38:31;23.20;52.30
60848;DHT22;46681;47.696;9.140;2023-05-07T09:41:22;23.30;52.20
60848;DHT22;46681;47.696;9.140;2023-05-07T09:44:12;23.40;52.10
60848;DHT22;46681;47.696;9.140;2023-05-07T09:47:12;23.50;51.90
60848;DHT22;46681;47.696;9.140;2023-05-07T09:53:18;23.70;51.70
60848;DHT22;46681;47.696;9.140;2023-05-07T09:56:30;23.80;51.70
60848;DHT22;46681;47.696;9.140;2023-05-07T10:02:32;24.00;51.50
60848;DHT22;46681;47.696;9.140;2023-05-07T10:11:41;24.20;51.30
60848;DHT22;46681;47.696;9.140;2023-05-07T10:24:13;24.30;51.40
60848;DHT22;46681;47.696;9.140;2023-05-07T10:27:32;24.30;51.50
60848;DHT22;46681;47.696;9.140;2023-05-07T10:30:34;24.30;51.80
60848;DHT22;46681;47.696;9.140;2023-05-07T10:33:13;24.30;51.80
60848;DHT22;46681;47.696;9.140;2023-05-07T10:36:12;24.40;51.60
60848;DHT22;46681;47.696;9.140;2023-05-07T10:39:23;24.60;51.30
60848;DHT22;46681;47.696;9.140;2023-05-07T10:45:32;24.80;50.90
60848;DHT22;46681;47.696;9.140;2023-05-07T11:36:12;26.20;49.40
60848;DHT22;46681;47.696;9.140;2023-05-07T11:45:30;26.60;49.10
60848;DHT22;46681;47.696;9.140;2023-05-07T11:48:29;26.70;49.10
60848;DHT22;46681;47.696;9.140;2023-05-07T11:54:47;26.90;48.90
60848;DHT22;46681;47.696;9.140;2023-05-07T12:25:22;26.20;48.30
60848;DHT22;46681;47.696;9.140;2023-05-07T12:28:22;26.30;48.10
60848;DHT22;46681;47.696;9.140;2023-05-07T12:31:04;26.40;48.30
60848;DHT22;46681;47.696;9.140;2023-05-07T12:42:58;26.70;48.70
60848;DHT22;46681;47.696;9.140;2023-05-07T12:50:09;26.70;48.80
60848;DHT22;46681;47.696;9.140;2023-05-07T12:52:36;26.70;48.90
60848;DHT22;46681;47.696;9.140;2023-05-07T13:02:16;26.60;48.30
60848;DHT22;46681;47.696;9.140;2023-05-07T13:05:05;26.40;48.40
60848;DHT22;46681;47.696;9.140;2023-05-07T13:08:09;26.30;48.60
60848;DHT22;46681;47.696;9.140;2023-05-07T13:11:04;26.30;48.70
60848;DHT22;46681;47.696;9.140;2023-05-07T13:14:04;26.30;48.70
60848;DHT22;46681;47.696;9.140;2023-05-07T13:16:49;26.20;46.50
60848;DHT22;46681;47.696;9.140;2023-05-07T13:19:41;25.50;46.70
60848;DHT22;46681;47.696;9.140;2023-05-07T13:22:42;26.00;47.20
60848;DHT22;46681;47.696;9.140;2023-05-07T13:28:49;26.40;45.40
60848;DHT22;46681;47.696;9.140;2023-05-07T13:31:25;26.40;45.20
60848;DHT22;46681;47.696;9.140;2023-05-07T13:34:10;26.60;45.70
60848;DHT22;46681;47.696;9.140;2023-05-07T13:36:50;27.00;44.60
60848;DHT22;46681;47.696;9.140;2023-05-07T13:40:01;27.20;45.20
60848;DHT22;46681;47.696;9.140;2023-05-07T13:42:40;27.30;45.00
60848;DHT22;46681;47.696;9.140;2023-05-07T13:45:44;26.70;44.50
60848;DHT22;46681;47.696;9.140;2023-05-07T13:48:45;27.10;44.40
60848;DHT22;46681;47.696;9.140;2023-05-07T13:51:16;27.40;45.30
60848;DHT22;46681;47.696;9.140;2023-05-07T13:54:05;27.70;45.50
60848;DHT22;46681;47.696;9.140;2023-05-07T13:56:38;27.90;45.50
60848;DHT22;46681;47.696;9.140;2023-05-07T13:59:33;28.00;45.50
60848;DHT22;46681;47.696;9.140;2023-05-07T14:02:36;28.10;45.40
60848;DHT22;46681;47.696;9.140;2023-05-07T14:05:23;27.90;45.40
60848;DHT22;46681;47.696;9.140;2023-05-07T14:08:10;27.90;45.60
60848;DHT22;46681;47.696;9.140;2023-05-07T14:10:56;27.70;45.80
60848;DHT22;46681;47.696;9.140;2023-05-07T14:13:51;27.60;46.00
60848;DHT22;46681;47.696;9.140;2023-05-07T14:16:27;27.50;46.30
60848;DHT22;46681;47.696;9.140;2023-05-07T14:18:58;27.30;46.20
60848;DHT22;46681;47.696;9.140;2023-05-07T14:21:33;27.00;44.60
60848;DHT22;46681;47.696;9.140;2023-05-07T14:24:17;26.80;45.10
60848;DHT22;46681;47.696;9.140;2023-05-07T14:27:17;26.60;42.70
60848;DHT22;46681;47.696;9.140;2023-05-07T14:30:17;26.30;43.40
60848;DHT22;46681;47.696;9.140;2023-05-07T14:39:23;25.70;43.10
60848;DHT22;46681;47.696;9.140;2023-05-07T14:42:10;25.70;44.10
60848;DHT22;46681;47.696;9.140;2023-05-07T14:48:07;25.50;44.20
60848;DHT22;46681;47.696;9.140;2023-05-07T14:51:18;25.50;44.40
60848;DHT22;46681;47.696;9.140;2023-05-07T15:03:35;25.10;44.20
60848;DHT22;46681;47.696;9.140;2023-05-07T15:06:07;24.80;44.00
60848;DHT22;46681;47.696;9.140;2023-05-07T15:08:58;24.70;43.40
60848;DHT22;46681;47.696;9.140;2023-05-07T15:11:31;24.50;43.70
60848;DHT22;46681;47.696;9.140;2023-05-07T15:14:04;24.40;44.00
60848;DHT22;46681;47.696;9.140;2023-05-07T15:16:36;24.50;45.30
60848;DHT22;46681;47.696;9.140;2023-05-07T15:19:25;24.50;46.10
60848;DHT22;46681;47.696;9.140;2023-05-07T15:22:14;24.30;47.00
60848;DHT22;46681;47.696;9.140;2023-05-07T15:24:41;24.20;47.50
60848;DHT22;46681;47.696;9.140;2023-05-07T15:27:18;24.10;47.90
60848;DHT22;46681;47.696;9.140;2023-05-07T15:29:50;24.00;48.30
60848;DHT22;46681;47.696;9.140;2023-05-07T15:32:26;24.00;48.80
60848;DHT22;46681;47.696;9.140;2023-05-07T15:34:57;23.90;49.00
60848;DHT22;46681;47.696;9.140;2023-05-07T15:37:40;23.80;49.10
60848;DHT22;46681;47.696;9.140;2023-05-07T15:40:29;23.70;49.30
60848;DHT22;46681;47.696;9.140;2023-05-07T15:43:01;23.80;49.10
60848;DHT22;46681;47.696;9.140;2023-05-07T15:45:38;23.80;48.90
60848;DHT22;46681;47.696;9.140;2023-05-07T15:48:10;23.80;49.10
60848;DHT22;46681;47.696;9.140;2023-05-07T15:50:53;23.80;49.40
60848;DHT22;46681;47.696;9.140;2023-05-07T15:53:30;23.90;49.50
60848;DHT22;46681;47.696;9.140;2023-05-07T15:56:08;23.80;49.50
60848;DHT22;46681;47.696;9.140;2023-05-07T15:58:59;23.80;49.60
60848;DHT22;46681;47.696;9.140;2023-05-07T16:01:39;23.70;49.90
60848;DHT22;46681;47.696;9.140;2023-05-07T16:04:10;23.60;49.90
60848;DHT22;46681;47.696;9.140;2023-05-07T16:06:56;23.60;50.00
60848;DHT22;46681;47.696;9.140;2023-05-07T16:09:27;23.70;50.10
60848;DHT22;46681;47.696;9.140;2023-05-07T16:12:03;23.70;49.90
60848;DHT22;46681;47.696;9.140;2023-05-07T16:14:38;23.70;50.10
60848;DHT22;46681;47.696;9.140;2023-05-07T16:17:09;23.50;50.60
60848;DHT22;46681;47.696;9.140;2023-05-07T16:22:35;23.30;50.40
60848;DHT22;46681;47.696;9.140;2023-05-07T16:25:04;23.30;50.80
60848;DHT22;46681;47.696;9.140;2023-05-07T16:27:44;23.40;50.80
60848;DHT22;46681;47.696;9.140;2023-05-07T16:30:16;23.40;50.60
60848;DHT22;46681;47.696;9.140;2023-05-07T16:32:44;23.40;50.50
60848;DHT22;46681;47.696;9.140;2023-05-07T16:35:10;23.30;50.10
60848;DHT22;46681;47.696;9.140;2023-05-07T16:37:39;23.30;50.50
60848;DHT22;46681;47.696;9.140;2023-05-07T16:40:11;23.20;50.50
60848;DHT22;46681;47.696;9.140;2023-05-07T16:42:50;23.10;50.50
60848;DHT22;46681;47.696;9.140;2023-05-07T16:45:15;23.10;50.70
60848;DHT22;46681;47.696;9.140;2023-05-07T16:47:48;23.10;51.70
60848;DHT22;46681;47.696;9.140;2023-05-07T16:50:18;23.10;51.40
60848;DHT22;46681;47.696;9.140;2023-05-07T16:52:51;23.00;51.60
60848;DHT22;46681;47.696;9.140;2023-05-07T16:55:33;23.00;52.00
60848;DHT22;46681;47.696;9.140;2023-05-07T16:58:06;22.90;52.20
60848;DHT22;46681;47.696;9.140;2023-05-07T17:00:37;22.90;51.80
60848;DHT22;46681;47.696;9.140;2023-05-07T17:03:05;22.90;52.40
60848;DHT22;46681;47.696;9.140;2023-05-07T17:05:35;22.80;52.20
60848;DHT22;46681;47.696;9.140;2023-05-07T17:08:01;22.80;53.00
60848;DHT22;46681;47.696;9.140;2023-05-07T17:10:30;22.70;52.50
60848;DHT22;46681;47.696;9.140;2023-05-07T17:12:59;22.70;52.70
60848;DHT22;46681;47.696;9.140;2023-05-07T17:15:28;22.60;52.60
60848;DHT22;46681;47.696;9.140;2023-05-07T17:17:57;22.60;52.80
60848;DHT22;46681;47.696;9.140;2023-05-07T17:20:25;22.50;53.30
60848;DHT22;46681;47.696;9.140;2023-05-07T17:22:57;22.50;53.40
60848;DHT22;46681;47.696;9.140;2023-05-07T17:25:23;22.50;53.40
60848;DHT22;46681;47.696;9.140;2023-05-07T17:28:00;22.40;53.80
60848;DHT22;46681;47.696;9.140;2023-05-07T17:30:38;22.40;54.20
60848;DHT22;46681;47.696;9.140;2023-05-07T17:33:13;22.30;54.40
60848;DHT22;46681;47.696;9.140;2023-05-07T17:36:07;22.30;54.60
60848;DHT22;46681;47.696;9.140;2023-05-07T17:38:38;22.20;54.30
60848;DHT22;46681;47.696;9.140;2023-05-07T17:41:13;22.10;54.90
60848;DHT22;46681;47.696;9.140;2023-05-07T17:43:42;22.10;55.10
60848;DHT22;46681;47.696;9.140;2023-05-07T17:46:20;22.00;55.40
60848;DHT22;46681;47.696;9.140;2023-05-07T17:48:45;22.00;55.90
60848;DHT22;46681;47.696;9.140;2023-05-07T17:51:17;21.90;56.30
60848;DHT22;46681;47.696;9.140;2023-05-07T17:53:42;21.80;56.60
60848;DHT22;46681;47.696;9.140;2023-05-07T17:56:08;21.80;56.90
60848;DHT22;46681;47.696;9.140;2023-05-07T17:58:37;21.70;57.10
60848;DHT22;46681;47.696;9.140;2023-05-07T18:01:05;21.70;57.50
60848;DHT22;46681;47.696;9.140;2023-05-07T18:04:01;21.60;57.30
60848;DHT22;46681;47.696;9.140;2023-05-07T18:06:29;21.60;58.70
60848;DHT22;46681;47.696;9.140;2023-05-07T18:09:09;21.50;59.70
60848;DHT22;46681;47.696;9.140;2023-05-07T18:11:42;21.50;60.60
60848;DHT22;46681;47.696;9.140;2023-05-07T18:14:11;21.40;60.80
60848;DHT22;46681;47.696;9.140;2023-05-07T18:16:45;21.30;62.00
60848;DHT22;46681;47.696;9.140;2023-05-07T18:19:21;21.20;64.30
60848;DHT22;46681;47.696;9.140;2023-05-07T18:21:49;21.20;64.60
60848;DHT22;46681;47.696;9.140;2023-05-07T18:24:17;21.10;64.60
60848;DHT22;46681;47.696;9.140;2023-05-07T18:26:46;21.00;64.70
60848;DHT22;46681;47.696;9.140;2023-05-07T18:29:12;20.90;64.80
60848;DHT22;46681;47.696;9.140;2023-05-07T18:31:46;20.80;63.60
60848;DHT22;46681;47.696;9.140;2023-05-07T18:34:38;20.80;64.80
60848;DHT22;46681;47.696;9.140;2023-05-07T18:37:11;20.70;65.40
60848;DHT22;46681;47.696;9.140;2023-05-07T18:39:40;20.60;66.20
60848;DHT22;46681;47.696;9.140;2023-05-07T18:42:08;20.60;68.20
60848;DHT22;46681;47.696;9.140;2023-05-07T18:44:33;20.60;67.70
60848;DHT22;46681;47.696;9.140;2023-05-07T18:47:08;20.60;68.10
60848;DHT22;46681;47.696;9.140;2023-05-07T18:49:41;20.60;68.40
60848;DHT22;46681;47.696;9.140;2023-05-07T18:52:16;20.60;68.50
60848;DHT22;46681;47.696;9.140;2023-05-07T18:54:42;20.60;68.00
60848;DHT22;46681;47.696;9.140;2023-05-07T18:57:14;20.50;67.70
60848;DHT22;46681;47.696;9.140;2023-05-07T18:59:45;20.40;67.60
60848;DHT22;46681;47.696;9.140;2023-05-07T19:02:14;20.40;68.10
60848;DHT22;46681;47.696;9.140;2023-05-07T19:04:43;20.30;68.40
60848;DHT22;46681;47.696;9.140;2023-05-07T19:07:21;20.20;68.60
60848;DHT22;46681;47.696;9.140;2023-05-07T19:10:03;20.20;68.70
60848;DHT22;46681;47.696;9.140;2023-05-07T19:15:16;20.10;68.70
60848;DHT22;46681;47.696;9.140;2023-05-07T19:17:45;20.00;69.10
60848;DHT22;46681;47.696;9.140;2023-05-07T19:20:14;20.00;69.20
60848;DHT22;46681;47.696;9.140;2023-05-07T19:22:39;19.90;69.00